Time;durP1;ratioP1;P1;durP2;ratioP2;P2;SDS_P1;SDS_P2;PMS_P1;PMS_P2;Temp;Humidity;BMP_temperature;BMP_pressure;BME280_temperature;BME280_humidity;BME280_pressure;Samples;Min_cycle;Max_cycle;Signal;HPM_P1;HPM_P2
2024/01/10 05:21:03;;;;;;;;;39.33;31.00;;;;;;;;5767994;23;47407;-72
2024/01/10 05:23:28;;;;;;;;;38.67;29.67;;;;;;;;4976658;28;45414;-72
2024/01/10 05:25:54;;;;;;;;;56.33;41.67;;;;;;;;4978982;28;45494;-73
2024/01/10 05:28:19;;;;;;;;;43.00;40.00;;;;;;;;4980715;28;45230;-73
2024/01/10 05:30:44;;;;;;;;;92.67;64.00;;;;;;;;4974178;28;45443;-73
2024/01/10 05:33:10;;;;;;;;;60.67;48.67;;;;;;;;4961390;28;45296;-72
2024/01/10 05:35:36;;;;;;;;;43.33;35.00;;;;;;;;4961181;28;45137;-73
2024/01/10 05:38:02;;;;;;;;;70.00;49.67;;;;;;;;4961200;28;45678;-74
2024/01/10 05:40:29;;;;;;;;;163.25;123.25;;;;;;;;4980755;28;45426;-74
2024/01/10 05:42:55;;;;;;;;;79.33;61.00;;;;;;;;4979566;28;45379;-74
2024/01/10 05:45:20;;;;;;;;;48.33;41.67;;;;;;;;4980589;28;45311;-74
2024/01/10 05:47:45;;;;;;;;;60.00;45.33;;;;;;;;4980376;28;45293;-74
2024/01/10 05:50:10;;;;;;;;;106.00;77.75;;;;;;;;4979991;28;45222;-74
2024/01/10 05:52:35;;;;;;;;;217.67;182.67;;;;;;;;4979887;28;45350;-73
2024/01/10 05:55:02;;;;;;;;;115.67;96.33;;;;;;;;4978959;28;45513;-73
2024/01/10 05:57:27;;;;;;;;;160.75;120.50;;;;;;;;4969344;28;45759;-73
2024/01/10 05:59:55;;;;;;;;;252.67;190.33;;;;;;;;4973000;28;46131;-74
2024/01/10 06:02:21;;;;;;;;;133.75;110.50;;;;;;;;4969021;28;46058;-74
2024/01/10 06:04:46;;;;;;;;;100.67;73.00;;;;;;;;4973142;28;45480;-74
2024/01/10 06:07:12;;;;;;;;;84.00;62.67;;;;;;;;4977821;28;46112;-74
2024/01/10 06:09:37;;;;;;;;;104.67;75.67;;;;;;;;4961672;28;45258;-74
2024/01/10 06:12:03;;;;;;;;;49.67;40.33;;;;;;;;4960286;28;45348;-73
2024/01/10 06:14:28;;;;;;;;;94.25;71.25;;;;;;;;4957992;28;45282;-74
2024/01/10 06:16:53;;;;;;;;;59.67;38.00;;;;;;;;4960321;28;45523;-74
2024/01/10 06:19:18;;;;;;;;;61.67;47.67;;;;;;;;4959888;28;46688;-74
2024/01/10 06:21:44;;;;;;;;;65.33;51.00;;;;;;;;4964881;28;45262;-74
2024/01/10 06:24:09;;;;;;;;;101.50;76.50;;;;;;;;4980628;28;45697;-75
2024/01/10 06:26:34;;;;;;;;;70.33;56.67;;;;;;;;4988953;28;45503;-73
2024/01/10 06:28:59;;;;;;;;;122.50;112.25;;;;;;;;4991482;28;45568;-74
2024/01/10 06:31:25;;;;;;;;;65.00;51.67;;;;;;;;4993039;28;45325;-75
2024/01/10 06:33:50;;;;;;;;;68.67;52.33;;;;;;;;4972551;28;45275;-75
2024/01/10 06:36:15;;;;;;;;;81.00;60.67;;;;;;;;4996922;28;45294;-75
2024/01/10 06:38:40;;;;;;;;;85.75;62.75;;;;;;;;4981604;28;46201;-74
2024/01/10 06:41:09;;;;;;;;;65.67;50.33;;;;;;;;4979428;28;45321;-74
2024/01/10 06:43:34;;;;;;;;;91.00;68.00;;;;;;;;4979388;28;45207;-74
2024/01/10 06:46:00;;;;;;;;;92.00;71.67;;;;;;;;4979702;28;45369;-74
2024/01/10 06:48:25;;;;;;;;;76.67;61.33;;;;;;;;4978988;28;45204;-73
2024/01/10 06:50:50;;;;;;;;;69.67;53.00;;;;;;;;4983932;28;45219;-74
2024/01/10 06:53:15;;;;;;;;;86.33;64.67;;;;;;;;4992490;28;45494;-73
2024/01/10 06:55:40;;;;;;;;;71.33;55.67;;;;;;;;4989408;28;45477;-73
2024/01/10 06:58:06;;;;;;;;;87.00;64.33;;;;;;;;4971544;28;48398;-73
2024/01/10 07:00:31;;;;;;;;;67.00;52.67;;;;;;;;4991932;28;45286;-72
2024/01/10 07:02:56;;;;;;;;;54.33;44.33;;;;;;;;4989751;28;45322;-72
2024/01/10 07:05:21;;;;;;;;;102.33;77.67;;;;;;;;4989390;28;45380;-73
2024/01/10 07:07:47;;;;;;;;;74.33;59.33;;;;;;;;4971931;28;47066;-73
2024/01/10 07:10:12;;;;;;;;;66.00;54.33;;;;;;;;4972322;28;45282;-73
2024/01/10 07:12:37;;;;;;;;;515.33;439.33;;;;;;;;4980092;28;45305;-73
2024/01/10 07:15:03;;;;;;;;;113.00;97.33;;;;;;;;4978260;28;46610;-73
2024/01/10 07:17:28;;;;;;;;;65.67;49.33;;;;;;;;4991005;28;46484;-73
2024/01/10 07:19:53;;;;;;;;;52.67;45.33;;;;;;;;4989659;28;45259;-73
2024/01/10 07:22:19;;;;;;;;;70.00;50.00;;;;;;;;4971714;28;45261;-73
2024/01/10 07:24:44;;;;;;;;;120.00;107.50;;;;;;;;4990974;28;45270;-73
2024/01/10 07:27:09;;;;;;;;;53.67;43.00;;;;;;;;4991046;28;45234;-73
2024/01/10 07:29:35;;;;;;;;;64.67;50.33;;;;;;;;4995366;28;45341;-74
2024/01/10 07:32:00;;;;;;;;;57.00;42.00;;;;;;;;4990823;28;45314;-73
2024/01/10 07:34:25;;;;;;;;;48.67;39.33;;;;;;;;4994114;28;45278;-73
2024/01/10 07:36:51;;;;;;;;;25.00;23.67;;;;;;;;4978902;28;46829;-74
2024/01/10 07:39:18;;;;;;;;;56.00;45.67;;;;;;;;4999052;28;45674;-74
2024/01/10 07:41:43;;;;;;;;;73.33;56.33;;;;;;;;4989984;28;45229;-74
2024/01/10 07:44:09;;;;;;;;;61.67;43.33;;;;;;;;4982680;28;45848;-74
2024/01/10 07:46:34;;;;;;;;;51.00;45.00;;;;;;;;4991020;28;45276;-73
2024/01/10 07:49:00;;;;;;;;;55.00;43.67;;;;;;;;4999114;28;45263;-74
2024/01/10 07:51:25;;;;;;;;;43.33;34.33;;;;;;;;4998888;28;45230;-73
2024/01/10 07:53:50;;;;;;;;;65.67;52.67;;;;;;;;4998374;28;46224;-73
2024/01/10 07:56:16;;;;;;;;;38.67;35.33;;;;;;;;4999886;28;46939;-72
2024/01/10 07:58:41;;;;;;;;;75.67;57.00;;;;;;;;4998479;28;45285;-72
2024/01/10 08:01:06;;;;;;;;;54.00;45.67;;;;;;;;4991507;28;45241;-73
2024/01/10 08:03:31;;;;;;;;;93.25;71.50;;;;;;;;5001047;28;45380;-73
2024/01/10 08:05:58;;;;;;;;;40.00;33.67;;;;;;;;5001171;28;46512;-73
2024/01/10 08:08:24;;;;;;;;;59.33;39.33;;;;;;;;4985085;28;45338;-73
2024/01/10 08:10:49;;;;;;;;;79.67;62.33;;;;;;;;4998490;28;45466;-73
2024/01/10 08:13:14;;;;;;;;;48.00;42.00;;;;;;;;4995574;28;45534;-73
2024/01/10 08:15:39;;;;;;;;;70.00;54.00;;;;;;;;4997164;28;45353;-74
2024/01/10 08:18:07;;;;;;;;;50.33;42.00;;;;;;;;4974667;28;45239;-74
2024/01/10 08:20:32;;;;;;;;;69.33;52.67;;;;;;;;4998441;28;45236;-74
2024/01/10 08:22:57;;;;;;;;;131.75;110.75;;;;;;;;4983141;28;46697;-75
2024/01/10 08:25:23;;;;;;;;;80.33;61.33;;;;;;;;4989935;28;45321;-75
2024/01/10 08:27:49;;;;;;;;;88.75;67.00;;;;;;;;4963862;28;45307;-75
2024/01/10 08:30:14;;;;;;;;;49.00;42.00;;;;;;;;4974949;28;45339;-74
2024/01/10 08:32:39;;;;;;;;;67.00;54.00;;;;;;;;4983414;28;45508;-73
2024/01/10 08:35:04;;;;;;;;;55.67;46.33;;;;;;;;5000794;28;46111;-73
2024/01/10 08:37:30;;;;;;;;;56.33;44.67;;;;;;;;5000009;28;45239;-73
2024/01/10 08:39:55;;;;;;;;;57.33;46.33;;;;;;;;5000822;28;45195;-73
2024/01/10 08:42:22;;;;;;;;;50.67;43.67;;;;;;;;4982704;28;47184;-74
2024/01/10 08:44:47;;;;;;;;;57.33;44.33;;;;;;;;4999215;28;45602;-73
2024/01/10 08:47:13;;;;;;;;;50.67;39.00;;;;;;;;4981700;28;45378;-73
2024/01/10 08:49:49;;;;;;;;;62.67;44.00;;;;;;;;4993232;28;45449;-79
2024/01/10 08:52:14;;;;;;;;;78.67;64.00;;;;;;;;4998125;28;45546;-72
2024/01/10 08:54:39;;;;;;;;;46.33;42.33;;;;;;;;4999471;28;45412;-75
2024/01/10 08:57:05;;;;;;;;;43.33;37.67;;;;;;;;4996868;28;45431;-74
2024/01/10 08:59:30;;;;;;;;;56.33;46.33;;;;;;;;4989997;28;45772;-74
2024/01/10 09:01:55;;;;;;;;;62.33;46.00;;;;;;;;4979088;28;45895;-73
2024/01/10 09:04:21;;;;;;;;;104.50;73.75;;;;;;;;4987417;28;46159;-74
2024/01/10 09:06:47;;;;;;;;;51.00;41.00;;;;;;;;4962072;28;45413;-73
2024/01/10 09:09:13;;;;;;;;;78.33;57.67;;;;;;;;4980456;28;45258;-74
2024/01/10 09:11:38;;;;;;;;;78.00;59.00;;;;;;;;4962267;28;46839;-76
2024/01/10 09:14:03;;;;;;;;;99.25;72.25;;;;;;;;4980164;28;45872;-75
2024/01/10 09:16:28;;;;;;;;;52.00;39.67;;;;;;;;4980251;28;45272;-74
2024/01/10 09:54:21;;;;;;;;;54.33;42.33;;;;;0.08;100.00;102211.56;5099631;27;45455;-73
2024/01/10 09:56:47;;;;;;;;;51.25;39.25;;;;;0.45;100.00;102240.84;5083202;27;45294;-74
2024/01/10 09:59:12;;;;;;;;;64.00;50.67;;;;;0.51;100.00;102224.88;5077766;27;45287;-73
2024/01/10 10:01:41;;;;;;;;;52.67;41.00;;;;;0.68;100.00;102242.88;5092514;27;45690;-73
2024/01/10 10:04:09;;;;;;;;;50.67;41.00;;;;;0.62;100.00;102230.22;5089574;27;47030;-73
2024/01/10 10:06:34;;;;;;;;;48.00;44.00;;;;;0.61;100.00;102223.19;5091968;27;45972;-74
2024/01/10 10:09:00;;;;;;;;;56.67;41.33;;;;;0.71;100.00;102227.50;5089290;27;45225;-73
2024/01/10 10:11:26;;;;;;;;;49.00;44.00;;;;;0.93;100.00;102256.31;5076797;27;45409;-73
2024/01/10 10:13:51;;;;;;;;;39.33;33.33;;;;;0.88;100.00;102241.97;5081572;27;46926;-73
2024/01/10 10:16:27;;;;;;;;;68.33;51.00;;;;;0.92;100.00;102237.94;5090400;27;45200;-74
2024/01/10 10:18:57;;;;;;;;;48.67;33.00;;;;;0.92;100.00;102231.03;5087671;27;45329;-73
2024/01/10 10:21:26;;;;;;;;;36.00;32.67;;;;;1.02;100.00;102240.56;5082321;27;45355;-72
2024/01/10 10:23:59;;;;;;;;;39.33;32.33;;;;;1.14;100.00;102254.63;5083132;27;48210;-73
2024/01/10 10:26:26;;;;;;;;;36.67;35.00;;;;;1.12;100.00;102230.13;5081701;27;45401;-71
2024/01/10 10:28:52;;;;;;;;;49.67;40.33;;;;;1.16;100.00;102221.81;5081737;27;45385;-73
2024/01/10 10:31:18;;;;;;;;;46.00;33.33;;;;;1.17;100.00;102226.22;5086113;27;45665;-73
2024/01/10 10:33:44;;;;;;;;;41.00;32.00;;;;;1.34;100.00;102236.41;5090995;27;47224;-74
2024/01/10 10:36:10;;;;;;;;;51.00;43.00;;;;;1.29;100.00;102229.91;5093164;27;45460;-71
2024/01/10 10:38:37;;;;;;;;;51.67;36.33;;;;;1.29;100.00;102223.78;5089162;27;45376;-73
2024/01/10 10:41:10;;;;;;;;;51.00;41.00;;;;;1.46;100.00;102240.84;5087221;27;45560;-73
2024/01/10 10:43:37;;;;;;;;;53.67;41.00;;;;;1.26;100.00;102195.78;5083387;27;46202;-74
2024/01/10 10:46:04;;;;;;;;;57.00;43.00;;;;;1.02;100.00;102142.53;5093713;27;45334;-73
2024/01/10 10:48:35;;;;;;;;;54.00;43.33;;;;;1.47;100.00;102208.78;5087753;27;45426;-73
2024/01/10 10:51:15;;;;;;;;;57.00;45.00;;;;;1.69;100.00;102240.13;5085353;27;45600;-73
2024/01/10 10:53:45;;;;;;;;;53.33;41.67;;;;;1.69;100.00;102222.81;5096112;27;45793;-73
2024/01/10 10:56:12;;;;;;;;;50.33;42.00;;;;;1.72;100.00;102217.84;5088762;27;45758;-73
2024/01/10 10:58:43;;;;;;;;;45.67;39.33;;;;;1.66;100.00;102201.69;5090364;27;45465;-73
2024/01/10 11:01:09;;;;;;;;;42.00;36.67;;;;;1.68;100.00;102184.50;5090823;27;45356;-71
2024/01/10 11:03:37;;;;;;;;;40.00;35.67;;;;;1.91;100.00;102222.88;5087322;27;45574;-72
2024/01/10 11:06:03;;;;;;;;;49.00;41.33;;;;;1.45;100.00;102126.97;5085828;27;45360;-73
2024/01/10 11:08:34;;;;;;;;;41.00;31.75;;;;;1.98;100.00;102219.06;5087232;27;45501;-73
2024/01/10 11:11:01;;;;;;;;;31.50;30.00;;;;;1.79;100.00;102169.72;5088895;27;45138;-72
2024/01/10 11:13:36;;;;;;;;;47.33;37.33;;;;;1.82;100.00;102167.38;5086127;27;46902;-73
2024/01/10 11:16:10;;;;;;;;;45.75;38.75;;;;;2.12;100.00;102208.03;5094800;27;45512;-71
2024/01/10 11:19:05;;;;;;;;;64.67;47.00;;;;;2.26;100.00;102209.16;5087003;27;45313;-71
2024/01/10 11:22:02;;;;;;;;;55.00;44.33;;;;;2.19;100.00;102197.34;5093523;27;47300;-71
2024/01/10 11:24:28;;;;;;;;;42.25;33.00;;;;;2.16;100.00;102189.25;5100611;27;47862;-71
2024/01/10 11:27:26;;;;;;;;;57.00;42.25;;;;;2.32;100.00;102209.66;5101143;27;45716;-71
2024/01/10 11:29:51;;;;;;;;;88.00;62.67;;;;;2.16;100.00;102172.72;5069145;27;45661;-71
2024/01/10 11:32:18;;;;;;;;;93.67;72.33;;;;;2.23;100.00;102183.72;5089079;27;55065;-71
2024/01/10 11:34:56;;;;;;;;;42.33;40.00;;;;;2.46;100.00;102208.13;5098618;27;47795;-73
2024/01/10 11:37:21;;;;;;;;;46.25;37.25;;;;;2.37;100.00;102186.53;5098173;27;45329;-72
2024/01/10 11:39:47;;;;;;;;;45.00;37.50;;;;;2.26;100.00;102174.34;5092868;27;45252;-72
2024/01/10 11:42:21;;;;;;;;;36.50;33.00;;;;;2.41;100.00;102199.06;5089696;27;45304;-71
2024/01/10 11:44:49;;;;;;;;;40.50;32.75;;;;;2.45;100.00;102190.66;5091892;27;45512;-74
2024/01/10 11:47:15;;;;;;;;;56.75;42.00;;;;;2.43;100.00;102180.09;5098775;27;45251;-72
2024/01/10 11:49:41;;;;;;;;;38.75;30.25;;;;;2.63;100.00;102196.41;5090727;27;45301;-74
2024/01/10 11:52:08;;;;;;;;;46.00;35.25;;;;;2.63;100.00;102180.75;5085156;27;45362;-72
2024/01/10 11:54:44;;;;;;;;;35.50;30.75;;;;;2.72;100.00;102196.22;5098558;27;48285;-72
2024/01/10 11:57:12;;;;;;;;;36.00;31.00;;;;;2.77;100.00;102189.66;5094246;27;45377;-72
2024/01/10 11:59:40;;;;;;;;;50.00;40.50;;;;;2.64;100.00;102167.84;5086983;27;45305;-73
2024/01/10 12:02:08;;;;;;;;;60.67;47.67;;;;;2.63;100.00;102159.88;5094271;27;45516;-72
2024/01/10 12:04:34;;;;;;;;;44.75;32.50;;;;;2.63;100.00;102160.81;5095896;27;47079;-72
2024/01/10 12:07:02;;;;;;;;;38.75;34.25;;;;;2.23;100.00;102082.00;5091898;27;45405;-72
2024/01/10 12:09:28;;;;;;;;;39.25;30.50;;;;;2.67;100.00;102143.69;5093450;27;45499;-72
2024/01/10 12:11:53;;;;;;;;;41.50;37.25;;;;;2.86;100.00;102167.81;5096187;27;45862;-72
2024/01/10 12:14:20;;;;;;;;;36.00;29.50;;;;;2.90;100.00;102168.94;5088496;27;45526;-72
2024/01/10 12:16:46;;;;;;;;;41.00;37.75;;;;;2.87;100.00;102148.72;5094376;27;45286;-72
2024/01/10 12:19:11;;;;;;;;;39.25;33.25;;;;;2.86;100.00;102148.63;5087533;27;45188;-72
2024/01/10 12:21:36;;;;;;;;;42.00;33.00;;;;;2.75;100.00;102113.84;5095277;27;48652;-71
2024/01/10 12:24:08;;;;;;;;;34.75;29.00;;;;;3.02;100.00;102148.97;5089970;27;46426;-72
2024/01/10 12:26:33;;;;;;;;;42.75;34.75;;;;;3.13;100.00;102157.63;5090314;27;45339;-72
2024/01/10 12:28:59;;;;;;;;;40.50;34.25;;;;;3.13;100.00;102157.63;5087088;27;45450;-73
2024/01/10 12:31:29;;;;;;;;;32.50;28.75;;;;;3.01;100.00;102141.94;5093695;27;45527;-73
2024/01/10 12:33:58;;;;;;;;;42.75;34.25;;;;;2.96;100.00;102153.75;5089121;27;45432;-72
2024/01/10 12:36:24;;;;;;;;;39.25;35.75;;;;;2.85;100.00;102137.25;5080909;27;44734;-73
2024/01/10 12:38:51;;;;;;;;;39.50;32.00;;;;;2.86;100.00;102131.25;5084636;27;45208;-73
2024/01/10 12:41:18;;;;;;;;;43.00;34.25;;;;;3.05;100.00;102158.75;5095821;27;45716;-73
2024/01/10 12:43:48;;;;;;;;;38.25;30.75;;;;;3.10;100.00;102150.47;5085025;27;45611;-73
2024/01/10 12:46:13;;;;;;;;;39.75;30.50;;;;;3.06;100.00;102138.00;5085699;27;45318;-73
2024/01/10 12:48:43;;;;;;;;;45.50;36.50;;;;;3.11;100.00;102136.66;5101942;27;45326;-73
2024/01/10 12:51:12;;;;;;;;;41.75;34.75;;;;;3.09;99.47;102130.38;5092114;27;47488;-73
2024/01/10 12:53:43;;;;;;;;;47.50;35.25;;;;;3.07;100.00;102125.84;5090168;27;45643;-73
2024/01/10 12:56:13;;;;;;;;;26.00;22.50;;;;;2.85;100.00;102084.13;5086341;27;45301;-73
2024/01/10 12:58:39;;;;;;;;;45.50;38.75;;;;;3.14;97.59;102131.66;5086029;27;45379;-73
2024/01/10 13:01:05;;;;;;;;;37.00;30.50;;;;;3.21;100.00;102137.31;5097742;27;45567;-73
2024/01/10 13:03:30;;;;;;;;;27.00;22.00;;;;;2.92;99.11;102091.63;5088638;27;45697;-72
2024/01/10 13:05:55;;;;;;;;;42.75;31.00;;;;;2.97;100.00;102116.41;5085996;27;45240;-73
2024/01/10 13:08:21;;;;;;;;;33.00;31.00;;;;;2.85;98.80;102105.91;5084095;27;45358;-73
2024/01/10 13:10:47;;;;;;;;;58.67;46.00;;;;;2.80;97.17;102107.28;5087958;27;45445;-72
2024/01/10 13:13:14;;;;;;;;;68.33;50.00;;;;;2.94;100.00;102136.13;5085832;27;46362;-73
2024/01/10 13:15:39;;;;;;;;;52.25;43.00;;;;;2.69;100.00;102106.47;5093339;27;45222;-73
2024/01/10 13:18:05;;;;;;;;;32.75;30.00;;;;;2.59;98.97;102101.31;5083560;27;45425;-73
2024/01/10 13:20:30;;;;;;;;;69.67;51.33;;;;;2.60;99.58;102117.88;5094956;27;45708;-72
2024/01/10 13:22:55;;;;;;;;;69.33;52.67;;;;;2.67;100.00;102115.88;5082750;27;45352;-72
2024/01/10 13:25:23;;;;;;;;;51.00;41.25;;;;;2.55;94.47;102098.34;5094369;27;45352;-73
2024/01/10 13:27:50;;;;;;;;;39.50;32.75;;;;;2.61;96.85;102123.22;5083089;27;45481;-73
2024/01/10 13:30:17;;;;;;;;;35.50;33.50;;;;;2.63;100.00;102120.72;5095960;27;45518;-73
2024/01/10 13:32:43;;;;;;;;;51.50;43.25;;;;;2.57;100.00;102117.63;5084178;27;45680;-73
2024/01/10 13:35:08;;;;;;;;;37.00;32.00;;;;;2.59;100.00;102126.50;5087957;27;45212;-73
2024/01/10 13:37:33;;;;;;;;;42.00;37.50;;;;;2.42;100.00;102097.41;5082560;27;45422;-73
2024/01/10 13:39:59;;;;;;;;;35.75;31.25;;;;;2.57;99.19;102135.91;5088131;27;45451;-73
2024/01/10 13:42:25;;;;;;;;;50.00;38.50;;;;;2.40;100.00;102095.44;5081533;27;45403;-74
2024/01/10 13:44:51;;;;;;;;;46.00;37.25;;;;;2.45;100.00;102123.72;5094717;27;45448;-73
2024/01/10 13:47:21;;;;;;;;;57.67;48.00;;;;;2.37;97.62;102118.69;5086639;27;45440;-74
2024/01/10 13:49:47;;;;;;;;;58.25;41.75;;;;;2.43;99.53;102127.00;5093603;27;45253;-73
2024/01/10 13:52:12;;;;;;;;;36.75;33.00;;;;;2.27;97.37;102084.84;5083891;27;47352;-74
2024/01/10 13:54:37;;;;;;;;;43.25;40.75;;;;;2.30;99.22;102101.66;5092400;27;45864;-75
2024/01/10 13:57:03;;;;;;;;;40.00;35.50;;;;;2.32;100.00;102096.56;5081652;27;45271;-74
2024/01/10 13:59:28;;;;;;;;;49.00;40.00;;;;;2.47;98.69;102110.81;5094892;27;46144;-73
2024/01/10 14:01:54;;;;;;;;;53.25;39.00;;;;;2.53;100.00;102126.94;5081612;27;51491;-74
2024/01/10 14:04:19;;;;;;;;;39.75;29.25;;;;;2.37;98.03;102110.88;5089979;27;45455;-75
2024/01/10 14:06:44;;;;;;;;;42.75;36.25;;;;;2.43;100.00;102127.00;5081549;27;46630;-74
2024/01/10 14:09:10;;;;;;;;;45.50;35.75;;;;;2.35;100.00;102116.00;5087756;27;45238;-75
2024/01/10 14:11:35;;;;;;;;;43.25;34.75;;;;;2.08;100.00;102090.34;5086508;27;46896;-73
2024/01/10 14:14:01;;;;;;;;;58.67;43.33;;;;;2.28;100.00;102120.59;5090705;27;45340;-75
2024/01/10 14:16:27;;;;;;;;;49.75;33.50;;;;;2.29;100.00;102123.31;5091220;27;45408;-75
2024/01/10 14:18:55;;;;;;;;;45.75;36.50;;;;;2.33;99.63;102133.22;5083671;27;45344;-75
2024/01/10 14:21:21;;;;;;;;;44.00;36.25;;;;;2.19;99.13;102115.56;5088698;27;46074;-75
2024/01/10 14:23:47;;;;;;;;;20.25;13.50;;;;;2.22;99.94;102123.63;5085899;27;45224;-75
2024/01/10 14:26:13;;;;;;;;;31.00;25.25;;;;;2.35;100.00;102133.31;5090104;27;45392;-75
2024/01/10 14:28:38;;;;;;;;;43.00;38.00;;;;;2.41;99.37;102137.34;5085957;27;45464;-75
2024/01/10 14:31:04;;;;;;;;;35.00;25.00;;;;;2.27;100.00;102104.03;5091149;27;45410;-75
2024/01/10 14:33:29;;;;;;;;;26.50;23.50;;;;;2.63;100.00;102146.81;5088338;27;45269;-75
2024/01/10 14:35:55;;;;;;;;;36.25;33.50;;;;;2.60;100.00;102144.88;5089935;27;45276;-75
2024/01/10 14:38:21;;;;;;;;;43.25;34.25;;;;;2.53;97.62;102140.00;5093725;27;45749;-75
2024/01/10 14:40:47;;;;;;;;;41.50;36.50;;;;;2.42;100.00;102114.75;5090135;27;45334;-74
2024/01/10 14:43:13;;;;;;;;;40.00;35.50;;;;;2.40;100.00;102103.28;5085191;27;44791;-75
2024/01/10 14:45:38;;;;;;;;;34.75;29.75;;;;;2.50;100.00;102141.47;5093468;27;45482;-73
2024/01/10 14:48:04;;;;;;;;;51.50;42.00;;;;;2.54;100.00;102165.28;5092211;27;45463;-73
2024/01/10 14:50:29;;;;;;;;;40.25;35.50;;;;;2.29;100.00;102127.63;5093131;27;45296;-75
2024/01/10 14:52:57;;;;;;;;;50.25;41.50;;;;;2.30;100.00;102129.44;5089575;27;45266;-75
2024/01/10 14:55:23;;;;;;;;;58.67;44.33;;;;;2.32;100.00;102153.94;5093022;27;45235;-75
2024/01/10 14:57:49;;;;;;;;;57.00;42.00;;;;;2.43;100.00;102167.06;5084028;27;45597;-76
2024/01/10 15:00:15;;;;;;;;;46.25;41.50;;;;;2.35;100.00;102157.75;5091876;27;45355;-76
2024/01/10 15:02:40;;;;;;;;;45.25;32.75;;;;;2.28;100.00;102155.41;5099965;27;45269;-76
2024/01/10 15:05:06;;;;;;;;;38.75;35.25;;;;;2.27;100.00;102150.06;5089405;27;45371;-75
2024/01/10 15:07:31;;;;;;;;;40.00;33.00;;;;;2.18;100.00;102153.75;5092355;27;45571;-75
2024/01/10 15:09:58;;;;;;;;;60.67;48.33;;;;;1.97;100.00;102131.19;5094361;27;46504;-75
2024/01/10 15:12:24;;;;;;;;;40.50;35.25;;;;;2.03;100.00;102144.72;5090146;27;45317;-76
2024/01/10 15:14:49;;;;;;;;;43.50;39.00;;;;;2.03;100.00;102147.34;5092398;27;45438;-75
2024/01/10 15:17:14;;;;;;;;;48.00;37.75;;;;;1.94;100.00;102139.69;5086791;27;60924;-75
2024/01/10 15:19:40;;;;;;;;;64.00;52.33;;;;;1.89;100.00;102132.28;5092852;27;45599;-73
2024/01/10 15:22:05;;;;;;;;;89.00;64.33;;;;;1.99;100.00;102163.53;5089158;27;45649;-75
2024/01/10 15:24:30;;;;;;;;;80.33;60.00;;;;;1.85;100.00;102145.84;5090415;27;45232;-76
2024/01/10 15:27:00;;;;;;;;;61.67;43.00;;;;;1.69;100.00;102123.75;5089737;27;51557;-75
2024/01/10 15:29:26;;;;;;;;;91.00;64.67;;;;;1.81;100.00;102159.41;5087019;27;46296;-75
2024/01/10 15:31:51;;;;;;;;;36.50;33.00;;;;;1.64;100.00;102134.59;5086621;27;45349;-76
2024/01/10 15:34:17;;;;;;;;;199.75;156.50;;;;;1.78;100.00;102165.28;5091119;27;45402;-76
2024/01/10 15:36:43;;;;;;;;;55.33;44.33;;;;;1.49;100.00;102135.16;5089358;27;45454;-76
2024/01/10 15:39:08;;;;;;;;;461.75;330.00;;;;;1.49;100.00;102150.78;5085898;27;45757;-76
2024/01/10 15:41:33;;;;;;;;;90.00;68.67;;;;;1.46;100.00;102154.84;5086201;27;45239;-75
2024/01/10 15:43:59;;;;;;;;;65.00;50.67;;;;;1.42;100.00;102152.75;5084588;27;45504;-75
2024/01/10 15:46:24;;;;;;;;;67.33;52.33;;;;;1.36;100.00;102152.25;5098789;27;45435;-74
2024/01/10 15:48:49;;;;;;;;;128.75;107.75;;;;;1.24;100.00;102145.25;5089691;27;45626;-74
2024/01/10 15:51:15;;;;;;;;;134.00;114.00;;;;;1.19;100.00;102149.16;5089110;27;45300;-75
2024/01/10 15:53:43;;;;;;;;;76.33;56.00;;;;;1.26;100.00;102160.97;5089752;27;45392;-75
2024/01/10 15:56:09;;;;;;;;;69.67;54.00;;;;;1.19;100.00;102156.97;5090845;27;45157;-74
2024/01/10 15:58:35;;;;;;;;;56.67;43.67;;;;;1.16;100.00;102164.53;5088501;27;45508;-74
2024/01/10 16:01:00;;;;;;;;;68.33;56.33;;;;;1.24;100.00;102184.31;5086392;27;45700;-73
2024/01/10 16:03:25;;;;;;;;;58.33;45.33;;;;;1.22;100.00;102196.28;5084130;27;54094;-72
2024/01/10 16:05:52;;;;;;;;;70.00;57.00;;;;;0.99;100.00;102168.31;5086455;27;58118;-72
2024/01/10 16:08:19;;;;;;;;;61.00;47.00;;;;;0.66;100.00;102123.03;5094809;27;46981;-72
2024/01/10 16:10:45;;;;;;;;;49.00;40.00;;;;;1.05;100.00;102189.66;5093800;27;45318;-72
2024/01/10 16:13:10;;;;;;;;;54.67;45.67;;;;;0.98;100.00;102192.53;5086999;27;45414;-73
2024/01/10 16:15:35;;;;;;;;;54.67;41.67;;;;;0.95;100.00;102191.34;5092607;27;45184;-73
2024/01/10 16:18:02;;;;;;;;;54.67;41.00;;;;;0.89;100.00;102196.94;5083111;27;46227;-73
2024/01/10 16:20:27;;;;;;;;;72.67;53.00;;;;;0.85;100.00;102187.97;5097866;27;45336;-73
2024/01/10 16:22:53;;;;;;;;;45.75;37.25;;;;;0.87;100.00;102181.22;5087987;27;45249;-73
2024/01/10 16:25:18;;;;;;;;;45.67;37.00;;;;;1.04;100.00;102213.88;5093293;27;45577;-73
2024/01/10 16:27:43;;;;;;;;;56.67;43.33;;;;;1.01;100.00;102207.47;5086052;27;45391;-73
2024/01/10 16:30:09;;;;;;;;;71.33;56.00;;;;;0.91;100.00;102194.47;5091691;27;45284;-73
2024/01/10 16:32:35;;;;;;;;;51.00;41.33;;;;;1.05;100.00;102225.19;5086483;27;45308;-72
2024/01/10 16:35:00;;;;;;;;;59.33;46.00;;;;;0.70;100.00;102173.66;5090341;27;45617;-75
2024/01/10 16:37:25;;;;;;;;;67.67;54.67;;;;;0.80;100.00;102193.56;5084676;27;45452;-73
2024/01/10 16:39:50;;;;;;;;;51.67;46.67;;;;;0.84;100.00;102204.38;5089060;27;45578;-73
2024/01/10 16:42:16;;;;;;;;;65.00;48.33;;;;;0.85;100.00;102216.59;5082379;27;45360;-74
2024/01/10 16:44:41;;;;;;;;;45.67;40.00;;;;;0.76;100.00;102195.00;5085682;27;57527;-74
2024/01/10 16:47:08;;;;;;;;;34.00;30.00;;;;;0.74;100.00;102199.16;5095358;27;45397;-74
2024/01/10 16:49:34;;;;;;;;;44.67;36.67;;;;;0.84;100.00;102224.25;5092631;27;45483;-74
2024/01/10 16:51:59;;;;;;;;;44.67;36.67;;;;;0.84;100.00;102233.00;5093914;27;45441;-73
2024/01/10 16:54:25;;;;;;;;;52.67;43.00;;;;;0.69;100.00;102204.72;5105981;27;46314;-73
2024/01/10 16:56:50;;;;;;;;;47.00;36.33;;;;;0.81;100.00;102234.41;5085284;27;46541;-73
2024/01/10 16:59:15;;;;;;;;;42.33;28.00;;;;;0.67;100.00;102199.38;5091247;27;45313;-72
2024/01/10 17:01:41;;;;;;;;;45.00;39.00;;;;;0.48;100.00;102176.09;5087178;27;45251;-73
2024/01/10 17:04:06;;;;;;;;;36.67;26.33;;;;;0.55;100.00;102188.84;5090521;27;45547;-73
2024/01/10 17:06:32;;;;;;;;;60.33;47.33;;;;;0.61;100.00;102204.06;5086920;27;46596;-73
2024/01/10 17:08:57;;;;;;;;;47.67;44.00;;;;;0.59;100.00;102219.56;5089340;27;45360;-73
2024/01/10 17:11:22;;;;;;;;;44.67;39.00;;;;;0.46;100.00;102195.84;5094308;27;54609;-73
2024/01/10 17:13:48;;;;;;;;;48.67;40.00;;;;;0.17;100.00;102151.72;5087387;27;53409;-74
2024/01/10 17:16:13;;;;;;;;;50.00;39.00;;;;;0.37;100.00;102206.34;5092892;27;46395;-73
2024/01/10 17:18:38;;;;;;;;;57.00;45.67;;;;;0.20;100.00;102185.78;5090088;27;45347;-73
2024/01/10 17:21:05;;;;;;;;;40.67;36.67;;;;;0.33;100.00;102221.56;5099272;27;49042;-73
2024/01/10 17:23:30;;;;;;;;;42.67;39.00;;;;;0.17;100.00;102202.00;5092894;27;46581;-73
2024/01/10 17:25:56;;;;;;;;;49.33;41.33;;;;;0.12;100.00;102203.28;5090532;27;45638;-74
2024/01/10 17:28:22;;;;;;;;;34.67;29.33;;;;;0.21;100.00;102224.88;5089748;27;46117;-73
2024/01/10 17:30:47;;;;;;;;;39.67;35.00;;;;;0.06;100.00;102222.63;5087699;27;45343;-73
2024/01/10 17:33:13;;;;;;;;;57.00;45.00;;;;;0.29;100.00;102263.69;5090914;27;45617;-74
2024/01/10 17:35:38;;;;;;;;;61.67;41.67;;;;;0.03;100.00;102225.88;5086302;27;45287;-74
2024/01/10 17:38:05;;;;;;;;;49.00;41.00;;;;;-0.01;100.00;102221.16;5082156;27;45338;-74
2024/01/10 17:40:30;;;;;;;;;46.33;40.00;;;;;-0.05;100.00;102212.19;5086613;27;45398;-74
2024/01/10 17:42:56;;;;;;;;;52.00;43.67;;;;;0.16;100.00;102259.97;5081665;27;45672;-74
2024/01/10 17:45:21;;;;;;;;;36.67;33.33;;;;;0.12;100.00;102259.56;5087798;27;46852;-75
2024/01/10 17:47:46;;;;;;;;;43.67;37.67;;;;;0.10;100.00;102267.22;5092732;27;49211;-73
2024/01/10 17:50:12;;;;;;;;;47.00;34.67;;;;;0.18;100.00;102271.44;5090953;27;45292;-74
2024/01/10 17:52:37;;;;;;;;;45.33;39.00;;;;;0.02;100.00;102257.81;5086405;27;45341;-75